Time;durP1;ratioP1;P1;durP2;ratioP2;P2;SDS_P1;SDS_P2;PMS_P1;PMS_P2;Temp;Humidity;BMP_temperature;BMP_pressure;BME280_temperature;BME280_humidity;BME280_pressure;Samples;Min_cycle;Max_cycle;Signal;HPM_P1;HPM_P2
2023/10/09 00:01:04;;;;;;;8.23;1.13;;;;;;;9.71;57.22;101977.78;4917346;28;20071;-72
2023/10/09 00:03:30;;;;;;;5.32;1.00;;;;;;;9.72;57.58;101976.91;4904535;28;20043;-73
2023/10/09 00:05:56;;;;;;;3.67;1.25;;;;;;;9.64;58.15;101965.75;4932703;28;20039;-73
2023/10/09 00:08:21;;;;;;;5.38;1.58;;;;;;;9.48;58.55;101954.72;4915935;28;20031;-74
2023/10/09 00:10:54;;;;;;;4.90;1.45;;;;;;;9.55;58.56;101945.03;4932440;28;20199;-73
2023/10/09 00:13:31;;;;;;;5.18;1.25;;;;;;;9.61;59.21;101934.50;4905308;28;20039;-72
2023/10/09 00:16:13;;;;;;;1.88;0.90;;;;;;;9.69;58.86;101919.53;4916063;28;20069;-71
2023/10/09 00:18:39;;;;;;;3.28;1.30;;;;;;;9.54;58.88;101922.44;4914064;28;20415;-71
2023/10/09 00:21:11;;;;;;;5.20;1.20;;;;;;;9.56;59.45;101910.22;4923635;28;20056;-71
2023/10/09 00:23:38;;;;;;;2.20;1.00;;;;;;;9.54;59.38;101904.16;4914284;28;20636;-71
2023/10/09 00:26:10;;;;;;;5.57;1.20;;;;;;;9.70;59.08;101896.88;4916641;28;20070;-72
2023/10/09 00:28:46;;;;;;;3.15;1.00;;;;;;;9.81;59.04;101902.78;4914195;28;20032;-72
2023/10/09 00:31:15;;;;;;;3.38;1.40;;;;;;;9.88;58.84;101899.16;4920396;28;20780;-71
2023/10/09 00:33:44;;;;;;;9.20;1.58;;;;;;;9.89;58.69;101890.44;4920398;28;20098;-75
2023/10/09 00:36:10;;;;;;;6.50;1.30;;;;;;;9.87;58.68;101896.59;4907425;28;20099;-68
2023/10/09 00:38:44;;;;;;;7.00;1.55;;;;;;;9.80;59.03;101894.09;4923751;28;20489;-75
2023/10/09 00:41:10;;;;;;;4.20;1.55;;;;;;;9.88;59.01;101865.22;4927253;28;20047;-73
2023/10/09 00:43:37;;;;;;;4.70;2.17;;;;;;;9.88;59.07;101867.84;4932807;28;20063;-73
2023/10/09 00:46:16;;;;;;;7.13;1.75;;;;;;;9.85;58.87;101856.59;4918222;28;20397;-73
2023/10/09 00:48:42;;;;;;;7.18;1.75;;;;;;;9.83;59.28;101858.38;4917020;28;20035;-74
2023/10/09 00:51:18;;;;;;;5.45;2.38;;;;;;;9.82;59.17;101849.69;4935687;28;20028;-74
2023/10/09 00:53:57;;;;;;;2.65;1.20;;;;;;;9.83;59.21;101845.31;4925543;28;20534;-74
2023/10/09 00:59:00;;;;;;;5.05;3.00;;;;;;;9.87;59.30;101826.09;4935625;28;20036;-74
2023/10/09 01:01:36;;;;;;;6.80;1.90;;;;;;;9.87;59.18;101837.38;4919637;28;20854;-70
2023/10/09 01:04:17;;;;;;;6.50;2.38;;;;;;;9.79;59.33;101834.94;4920787;28;20043;-78
2023/10/09 01:07:04;;;;;;;4.28;2.17;;;;;;;9.95;59.18;101824.16;4935526;28;20106;-78
2023/10/09 01:09:36;;;;;;;10.55;2.88;;;;;;;9.94;58.95;101812.00;4936407;28;20055;-77
2023/10/09 01:14:27;;;;;;;10.30;2.95;;;;;;;9.73;59.82;101813.28;4918947;28;20051;-77
2023/10/09 01:16:54;;;;;;;8.45;2.90;;;;;;;9.54;60.20;101823.25;4933865;28;20043;-69
2023/10/09 01:19:30;;;;;;;7.05;2.40;;;;;;;9.52;60.72;101810.25;4921526;28;20307;-73
2023/10/09 01:22:04;;;;;;;4.88;2.63;;;;;;;9.76;60.09;101794.94;4919427;28;20118;-73
2023/10/09 01:24:36;;;;;;;8.45;2.60;;;;;;;9.85;60.06;101793.91;4933175;28;20031;-72
2023/10/09 01:27:05;;;;;;;14.27;2.80;;;;;;;9.77;60.41;101789.69;4924189;28;20264;-72
2023/10/09 01:29:30;;;;;;;4.63;2.35;;;;;;;9.92;59.92;101779.81;4918684;28;20050;-72
2023/10/09 01:32:00;;;;;;;5.75;2.58;;;;;;;9.88;59.81;101775.56;4936228;28;20039;-72
2023/10/09 01:37:19;;;;;;;9.80;2.92;;;;;;;9.82;60.28;101762.66;4931529;28;20070;-72
2023/10/09 01:43:03;;;;;;;6.30;2.50;;;;;;;10.01;60.20;101745.66;4933616;28;20043;-72
2023/10/09 01:45:29;;;;;;;7.35;2.58;;;;;;;9.94;60.18;101731.03;4917209;28;21036;-72
2023/10/09 01:47:56;;;;;;;5.45;2.90;;;;;;;9.89;60.21;101732.91;4920460;28;20031;-71
2023/10/09 01:50:30;;;;;;;8.55;3.60;;;;;;;9.99;59.96;101726.56;4918333;28;20059;-71
2023/10/09 01:52:56;;;;;;;6.82;3.00;;;;;;;9.93;60.42;101717.13;4921060;28;20126;-72
2023/10/09 01:55:29;;;;;;;3.85;2.30;;;;;;;9.84;59.97;101716.50;4917021;28;20065;-71
2023/10/09 01:58:05;;;;;;;7.57;2.67;;;;;;;9.85;60.47;101715.59;4933753;28;20042;-71
2023/10/09 02:01:17;;;;;;;6.88;2.45;;;;;;;10.03;59.82;101709.91;4915526;28;20161;-71
2023/10/09 02:03:18;;;;;;;4.07;2.08;;;;;;;10.08;59.83;101723.75;4926237;28;20530;-71
2023/10/09 02:05:43;;;;;;;11.90;2.78;;;;;;;10.02;60.02;101716.06;4910320;28;20174;-71
2023/10/09 02:08:10;;;;;;;8.68;2.60;;;;;;;9.96;59.71;101710.97;4897630;29;20162;-71
2023/10/09 02:10:37;;;;;;;6.20;2.83;;;;;;;9.91;60.07;101721.53;4909537;28;20119;-72
2023/10/09 02:13:10;;;;;;;5.70;2.72;;;;;;;9.98;59.84;101719.63;4925249;28;20089;-71
2023/10/09 02:15:45;;;;;;;7.22;3.13;;;;;;;9.96;59.69;101711.81;4928370;28;20237;-71
2023/10/09 02:24:08;;;;;;;10.55;2.60;;;;;;;10.08;59.81;101697.63;4924059;28;20051;-71
2023/10/09 02:26:46;;;;;;;8.45;2.58;;;;;;;10.06;59.92;101695.91;4914498;28;21162;-71
2023/10/09 02:31:41;;;;;;;7.10;3.67;;;;;;;10.13;59.68;101702.72;4932160;28;20043;-72
2023/10/09 02:34:10;;;;;;;9.85;2.83;;;;;;;10.14;59.35;101707.91;4931748;28;20051;-71
2023/10/09 02:36:42;;;;;;;11.13;3.47;;;;;;;10.08;59.52;101705.47;4915926;28;20035;-71
2023/10/09 02:39:21;;;;;;;14.35;3.13;;;;;;;10.04;59.67;101680.31;4911226;28;20388;-72
2023/10/09 02:41:49;;;;;;;8.55;2.90;;;;;;;9.95;60.21;101670.09;4910230;28;20067;-71
2023/10/09 02:44:15;;;;;;;10.80;3.33;;;;;;;9.98;60.07;101662.16;4917073;28;20155;-71
2023/10/09 02:46:44;;;;;;;6.35;2.97;;;;;;;9.94;60.18;101676.19;4919761;28;20034;-71
2023/10/09 02:49:15;;;;;;;8.23;3.28;;;;;;;9.92;60.21;101691.91;4931968;28;20518;-68
2023/10/09 02:51:41;;;;;;;10.30;4.07;;;;;;;9.94;60.69;101686.63;4916779;28;20270;-69
2023/10/09 02:54:18;;;;;;;8.25;3.92;;;;;;;9.84;60.52;101664.28;4915244;28;20066;-67
2023/10/09 02:56:54;;;;;;;16.10;4.32;;;;;;;9.90;60.56;101658.88;4915280;28;20031;-68
2023/10/09 02:59:21;;;;;;;6.45;3.42;;;;;;;9.94;60.95;101661.38;4906563;28;20050;-69
2023/10/09 03:01:48;;;;;;;8.32;4.05;;;;;;;9.95;60.60;101655.28;4933039;28;20310;-67
2023/10/09 03:04:15;;;;;;;7.88;3.80;;;;;;;9.90;60.86;101656.28;4933053;28;20128;-69
2023/10/09 03:06:59;;;;;;;13.98;5.60;;;;;;;9.90;61.13;101700.66;4914863;28;20577;-69
2023/10/09 03:09:28;;;;;;;5.43;4.03;;;;;;;9.85;60.81;101656.38;4909025;28;20051;-69
2023/10/09 03:12:09;;;;;;;8.82;4.28;;;;;;;9.87;60.90;101651.13;4919204;28;20098;-70
2023/10/09 03:14:38;;;;;;;8.30;4.68;;;;;;;9.83;61.14;101639.03;4913926;28;20329;-70
2023/10/09 03:17:05;;;;;;;8.43;4.93;;;;;;;9.82;61.57;101629.50;4919429;28;20162;-74
2023/10/09 03:19:39;;;;;;;6.65;4.75;;;;;;;9.80;61.73;101637.38;4916848;28;20046;-74
2023/10/09 03:22:09;;;;;;;10.00;5.38;;;;;;;9.78;61.37;101637.38;4934203;28;20039;-69
2023/10/09 03:24:37;;;;;;;;;;;;;;;9.85;61.36;101635.50;4916165;28;20070;-69
2023/10/09 03:27:03;;;;;;;11.52;4.88;;;;;;;9.75;62.14;101647.91;4924777;28;20337;-72
2023/10/09 03:29:28;;;;;;;8.43;5.20;;;;;;;9.89;61.77;101633.69;4915614;28;20040;-71
2023/10/09 03:31:56;;;;;;;8.32;4.75;;;;;;;9.94;61.45;101634.41;4920206;28;20061;-72
2023/10/09 03:34:23;;;;;;;11.77;5.15;;;;;;;9.95;61.57;101615.25;4916677;28;20050;-71
2023/10/09 03:36:59;;;;;;;7.60;5.60;;;;;;;9.98;61.29;101618.63;4930420;28;20051;-70
2023/10/09 03:39:38;;;;;;;13.60;5.93;;;;;;;9.97;61.46;101623.91;4920817;28;20039;-72
2023/10/09 03:42:05;;;;;;;13.75;5.57;;;;;;;9.73;62.59;101622.72;4917093;28;20028;-71
2023/10/09 03:44:35;;;;;;;14.65;6.82;;;;;;;9.90;62.01;101614.50;4913891;28;20101;-71
2023/10/09 03:47:05;;;;;;;19.90;6.80;;;;;;;9.95;61.82;101610.03;4918136;28;20118;-71
2023/10/09 03:49:31;;;;;;;15.20;6.90;;;;;;;10.00;61.86;101611.59;4915659;28;20130;-71
2023/10/09 03:51:59;;;;;;;16.17;6.22;;;;;;;10.02;61.84;101611.59;4929232;28;20035;-72
2023/10/09 03:54:25;;;;;;;12.88;5.97;;;;;;;10.04;61.86;101604.56;4917311;28;20039;-72
2023/10/09 03:56:50;;;;;;;10.38;6.18;;;;;;;10.06;61.70;101608.00;4918082;28;20907;-72
2023/10/09 03:59:19;;;;;;;18.63;7.43;;;;;;;10.03;61.90;101610.66;4917483;28;20047;-71
2023/10/09 04:01:46;;;;;;;14.20;6.97;;;;;;;9.99;61.99;101599.47;4919510;28;20063;-71
2023/10/09 04:04:14;;;;;;;17.02;6.75;;;;;;;9.88;62.59;101608.44;4917798;28;20183;-71
2023/10/09 04:06:40;;;;;;;18.20;8.02;;;;;;;9.96;62.66;101609.13;4927995;28;20031;-71
2023/10/09 04:14:43;;;;;;;15.33;8.20;;;;;;;9.76;63.24;101625.25;4919469;28;20055;-71
2023/10/09 04:17:33;;;;;;;18.13;7.57;;;;;;;9.32;64.45;101604.56;4920582;28;20122;-72
2023/10/09 04:22:49;;;;;;;18.85;8.80;;;;;;;9.65;64.22;101595.94;4917289;28;20106;-72
2023/10/09 04:25:20;;;;;;;16.42;7.13;;;;;;;9.74;63.48;101586.13;4923652;28;20051;-71
2023/10/09 04:27:46;;;;;;;20.48;7.88;;;;;;;9.98;63.06;101587.28;4935876;28;20055;-74
2023/10/09 04:30:15;;;;;;;20.58;8.63;;;;;;;9.91;63.04;101590.09;4928139;28;20522;-74
2023/10/09 04:32:45;;;;;;;24.50;9.35;;;;;;;10.01;62.80;101586.34;4918016;28;20391;-77
2023/10/09 04:37:52;;;;;;;26.20;8.63;;;;;;;9.55;64.69;101564.84;4919421;28;20045;-72
2023/10/09 04:43:06;;;;;;;17.67;8.48;;;;;;;10.06;63.15;101547.03;4925216;28;20573;-73
2023/10/09 04:48:38;;;;;;;19.67;9.88;;;;;;;10.06;62.94;101542.69;4918020;28;20031;-74
2023/10/09 04:54:14;;;;;;;23.20;9.20;;;;;;;10.26;62.61;101520.38;4938994;28;20039;-74
2023/10/09 04:56:53;;;;;;;25.85;11.20;;;;;;;10.33;62.68;101519.31;4922016;28;20456;-73
2023/10/09 04:59:19;;;;;;;29.42;11.80;;;;;;;9.92;63.67;101522.19;4902087;29;20070;-72
2023/10/09 05:01:57;;;;;;;25.63;9.85;;;;;;;9.93;63.69;101512.59;4932658;28;20055;-74
2023/10/09 05:04:41;;;;;;;22.80;10.63;;;;;;;10.11;63.77;101514.69;4926127;28;20094;-74
2023/10/09 05:07:49;;;;;;;27.55;10.95;;;;;;;10.33;62.96;101516.72;4919971;28;20050;-74
2023/10/09 05:10:17;;;;;;;24.05;10.13;;;;;;;10.43;62.91;101518.13;4936464;28;20031;-74
2023/10/09 05:12:47;;;;;;;28.48;12.55;;;;;;;10.14;63.59;101527.66;4919415;28;20412;-74
2023/10/09 05:15:14;;;;;;;29.38;11.50;;;;;;;10.23;63.42;101531.78;4917597;28;20040;-75
2023/10/09 05:17:45;;;;;;;25.48;11.80;;;;;;;10.42;63.32;101526.88;4913848;28;20706;-75
2023/10/09 05:22:58;;;;;;;25.58;11.60;;;;;;;10.21;63.79;101529.22;4918217;28;20051;-74
2023/10/09 05:33:52;;;;;;;;;;;;;;;10.43;64.18;101515.53;4920147;28;20051;-74
2023/10/09 05:38:58;;;;;;;32.20;13.40;;;;;;;10.60;64.16;101538.56;4924430;28;20196;-74
2023/10/09 05:49:54;;;;;;;31.05;14.40;;;;;;;10.00;67.12;101545.47;4920525;28;20050;-72
2023/10/09 05:52:56;;;;;;;30.25;13.20;;;;;;;10.13;66.54;101546.84;4935964;28;20038;-76
2023/10/09 06:16:41;;;;;;;31.30;12.23;;;;;;;10.76;65.27;101552.03;4918207;28;20031;-73
2023/10/09 06:24:25;;;;;;;33.00;13.90;;;;;;;10.73;65.93;101555.59;4919642;28;20047;-73
2023/10/09 06:29:36;;;;;;;30.38;13.50;;;;;;;10.81;65.56;101557.97;4918944;28;20069;-75
2023/10/09 06:35:14;;;;;;;39.65;14.45;;;;;;;11.22;65.02;101551.50;4928481;28;20502;-73
2023/10/09 06:38:19;;;;;;;32.15;14.02;;;;;;;11.22;64.75;101541.03;4924847;28;20042;-72
2023/10/09 06:43:36;;;;;;;40.85;15.75;;;;;;;11.43;65.22;101534.22;4918613;28;20570;-73
2023/10/09 06:48:55;;;;;;;34.10;13.88;;;;;;;11.37;65.59;101549.28;4911056;28;20359;-71
2023/10/09 06:59:05;;;;;;;37.58;16.30;;;;;;;11.59;65.60;101550.28;4928132;28;20268;-71
2023/10/09 07:01:44;;;;;;;40.97;16.67;;;;;;;11.70;65.30;101552.53;4919921;28;20039;-70
2023/10/09 07:04:45;;;;;;;35.67;15.10;;;;;;;11.85;64.60;101546.81;4916677;28;20040;-71
2023/10/09 07:07:20;;;;;;;35.20;15.93;;;;;;;12.01;64.69;101547.13;4913235;28;20181;-69
2023/10/09 07:12:33;;;;;;;36.35;15.80;;;;;;;12.06;65.35;101541.72;4916063;28;20494;-68
2023/10/09 07:20:13;;;;;;;36.25;15.90;;;;;;;11.99;65.63;101548.09;4914527;28;20667;-68
2023/10/09 07:22:39;;;;;;;35.30;12.38;;;;;;;12.28;65.21;101545.28;4918366;28;20494;-72
2023/10/09 07:25:27;;;;;;;28.23;12.90;;;;;;;12.13;65.73;101548.44;4924297;28;20051;-70
2023/10/09 07:27:55;;;;;;;31.08;13.40;;;;;;;12.44;64.79;101555.19;4916269;28;20039;-69
2023/10/09 07:35:57;;;;;;;39.67;12.23;;;;;;;12.53;65.32;101559.25;4913994;28;20035;-69
2023/10/09 07:38:35;;;;;;;23.35;9.13;;;;;;;12.77;64.55;101562.75;4918623;28;20035;-70
2023/10/09 07:46:32;;;;;;;24.73;7.63;;;;;;;12.77;65.07;101560.97;4913507;28;20102;-70
2023/10/09 07:49:08;;;;;;;25.25;6.78;;;;;;;12.84;65.23;101564.22;4917111;28;20121;-70
2023/10/09 07:51:35;;;;;;;15.02;4.65;;;;;;;12.85;65.40;101565.94;4922849;28;20038;-69
2023/10/09 07:54:07;;;;;;;18.98;5.88;;;;;;;12.95;65.12;101571.69;4915847;28;20136;-69
2023/10/09 07:56:38;;;;;;;14.38;6.72;;;;;;;13.16;64.22;101572.59;4917898;28;20415;-69
2023/10/09 07:59:12;;;;;;;27.17;5.88;;;;;;;12.90;65.23;101579.72;4918777;28;20043;-68
2023/10/09 08:01:58;;;;;;;16.83;5.82;;;;;;;13.11;64.59;101568.38;4924864;28;20501;-67
2023/10/09 08:04:39;;;;;;;13.27;5.00;;;;;;;13.19;64.72;101573.34;4920720;28;20047;-69
2023/10/09 08:07:34;;;;;;;12.55;4.82;;;;;;;13.17;64.66;101571.69;4914461;28;20035;-71
2023/10/09 08:17:50;;;;;;;17.33;4.70;;;;;;;13.01;65.22;101572.31;4934780;28;20035;-70
2023/10/09 08:20:17;;;;;;;17.33;5.78;;;;;;;12.87;65.76;101571.97;4935432;28;20528;-68
2023/10/09 08:22:43;;;;;;;25.38;5.60;;;;;;;13.06;65.50;101574.75;4919012;28;20123;-69
2023/10/09 08:25:26;;;;;;;12.75;5.25;;;;;;;13.18;65.09;101576.00;4932722;28;20140;-68
2023/10/09 08:31:18;;;;;;;12.50;4.53;;;;;;;13.16;65.14;101575.22;4918374;28;20233;-71
2023/10/09 08:33:40;;;;;;;21.00;6.00;;;;;;;13.16;64.99;101567.34;4924270;28;20062;-68
2023/10/09 08:36:07;;;;;;;15.02;4.50;;;;;;;13.28;64.51;101570.34;4919819;28;20229;-70
2023/10/09 08:38:34;;;;;;;19.35;5.32;;;;;;;13.38;64.39;101576.06;4919474;28;20031;-70
2023/10/09 08:41:22;;;;;;;15.02;6.18;;;;;;;13.29;64.51;101564.19;4914670;28;20081;-70
2023/10/09 08:43:53;;;;;;;13.65;4.65;;;;;;;13.14;65.13;101558.66;4916455;28;20154;-70
2023/10/09 08:46:29;;;;;;;16.77;3.78;;;;;;;13.36;64.64;101556.91;4921221;28;20046;-69
2023/10/09 08:48:59;;;;;;;17.98;4.70;;;;;;;13.19;64.90;101570.72;4912651;28;20040;-70
2023/10/09 08:51:25;;;;;;;21.65;6.00;;;;;;;13.28;64.77;101569.50;4934810;28;20126;-69
2023/10/09 08:53:52;;;;;;;13.52;4.05;;;;;;;13.20;65.00;101571.56;4931183;28;20063;-70
2023/10/09 08:56:22;;;;;;;20.77;5.22;;;;;;;13.22;65.18;101561.84;4934916;28;20373;-70
2023/10/09 08:58:52;;;;;;;17.50;5.00;;;;;;;13.38;64.67;101569.97;4915645;28;20045;-70
2023/10/09 09:01:21;;;;;;;15.50;3.63;;;;;;;13.30;64.88;101572.91;4917990;28;20130;-69
2023/10/09 09:03:47;;;;;;;14.27;3.50;;;;;;;13.22;64.99;101590.72;4914758;28;20043;-69
2023/10/09 09:06:14;;;;;;;12.77;4.40;;;;;;;13.18;65.41;101581.25;4914038;28;20039;-70
2023/10/09 09:08:40;;;;;;;16.35;4.43;;;;;;;13.39;64.90;101577.78;4919593;28;20055;-69
2023/10/09 09:11:12;;;;;;;14.80;3.85;;;;;;;13.40;64.89;101579.47;4913815;28;20035;-69
2023/10/09 09:13:41;;;;;;;15.18;4.13;;;;;;;13.17;65.95;101584.81;4919811;28;20552;-71
2023/10/09 09:16:22;;;;;;;16.55;3.90;;;;;;;13.47;64.86;101580.97;4918226;28;20047;-70
2023/10/09 09:19:00;;;;;;;14.73;4.00;;;;;;;13.29;65.31;101592.19;4916981;28;20049;-71
2023/10/09 09:21:27;;;;;;;9.30;3.42;;;;;;;13.65;64.05;101589.00;4921984;28;20043;-71
2023/10/09 09:24:14;;;;;;;15.35;4.03;;;;;;;13.49;64.95;101601.88;4912521;28;20062;-70
2023/10/09 09:26:46;;;;;;;19.00;4.80;;;;;;;13.27;65.46;101599.28;4917585;28;20027;-70
2023/10/09 09:29:17;;;;;;;15.82;4.53;;;;;;;13.29;65.64;101602.69;4913280;28;20625;-70
2023/10/09 09:32:15;;;;;;;18.70;4.80;;;;;;;13.48;64.76;101602.81;4920247;28;20114;-71
2023/10/09 09:34:56;;;;;;;12.57;3.45;;;;;;;13.66;64.57;101607.34;4913534;28;20501;-70
2023/10/09 09:37:28;;;;;;;16.60;3.63;;;;;;;13.69;64.08;101612.47;4918896;28;20051;-69
2023/10/09 09:42:50;;;;;;;12.98;3.63;;;;;;;13.79;64.01;101601.59;4933270;28;20042;-69
2023/10/09 09:45:16;;;;;;;15.63;4.72;;;;;;;13.72;64.28;101607.09;4914970;28;20075;-69
2023/10/09 09:47:51;;;;;;;15.10;3.95;;;;;;;13.59;64.81;101605.03;4917663;28;20172;-70
2023/10/09 09:50:24;;;;;;;11.93;4.38;;;;;;;13.50;65.23;101607.09;4912344;28;20526;-69
2023/10/09 09:52:55;;;;;;;13.13;3.03;;;;;;;13.35;65.41;101607.69;4915456;28;20123;-69
2023/10/09 09:55:31;;;;;;;16.80;3.78;;;;;;;13.54;64.97;101613.09;4917862;28;20043;-69
2023/10/09 09:57:58;;;;;;;16.58;5.07;;;;;;;13.54;65.10;101623.59;4927036;28;20038;-69
2023/10/09 10:00:30;;;;;;;9.88;3.38;;;;;;;13.59;64.88;101626.06;4916952;28;20515;-69
2023/10/09 10:03:32;;;;;;;14.30;3.97;;;;;;;13.74;64.39;101630.66;4931813;28;20046;-70
2023/10/09 10:06:04;;;;;;;15.73;4.05;;;;;;;13.87;64.03;101634.47;4910248;28;20044;-69
2023/10/09 10:08:33;;;;;;;12.32;3.95;;;;;;;13.39;65.40;101626.81;4919376;28;20400;-69
2023/10/09 10:11:05;;;;;;;13.02;3.78;;;;;;;13.73;64.80;101629.81;4910715;28;20075;-69
2023/10/09 10:13:58;;;;;;;16.50;3.53;;;;;;;13.81;64.19;101633.88;4919706;28;20070;-69
2023/10/09 10:16:34;;;;;;;16.42;3.75;;;;;;;13.83;64.12;101630.28;4917340;28;20506;-70
2023/10/09 10:21:52;;;;;;;13.02;3.95;;;;;;;13.85;64.31;101638.09;4918705;28;20042;-69
2023/10/09 10:24:51;;;;;;;15.68;3.63;;;;;;;13.44;64.99;101636.22;4919974;28;20043;-69
2023/10/09 10:27:26;;;;;;;14.25;3.90;;;;;;;14.02;64.17;101637.41;4911197;28;20110;-71
2023/10/09 10:30:30;;;;;;;18.35;3.85;;;;;;;14.35;62.79;101645.59;4916925;28;20058;-71
2023/10/09 10:32:57;;;;;;;13.68;3.47;;;;;;;14.80;61.98;101649.75;4941340;28;20055;-71
2023/10/09 10:35:39;;;;;;;8.27;2.97;;;;;;;14.69;61.77;101646.78;4922043;28;20109;-71
2023/10/09 10:38:23;;;;;;;;;;;;;;;15.32;60.70;101646.50;4912234;28;20047;-69
2023/10/09 10:40:56;;;;;;;9.93;2.67;;;;;;;15.33;59.41;101645.59;4929851;28;19966;-68
2023/10/09 10:43:34;;;;;;;11.02;2.70;;;;;;;15.00;59.62;101646.22;4912749;28;20059;-70
2023/10/09 10:46:23;;;;;;;13.60;2.15;;;;;;;15.29;59.04;101646.66;4915011;28;20679;-69
2023/10/09 10:48:59;;;;;;;11.43;3.20;;;;;;;15.35;58.68;101651.66;4929917;28;20047;-69
2023/10/09 10:51:37;;;;;;;11.68;2.10;;;;;;;15.38;58.74;101643.59;4916294;28;20028;-69
2023/10/09 10:56:51;;;;;;;7.88;1.80;;;;;;;15.44;58.92;101640.66;4924290;28;20418;-69
2023/10/09 10:59:23;;;;;;;9.52;2.60;;;;;;;15.36;58.78;101634.91;4912170;28;20619;-70
2023/10/09 11:18:07;;;;;;;7.95;2.25;;;;;;;14.28;61.11;101668.69;4915267;28;20291;-70
2023/10/09 11:20:53;;;;;;;6.57;1.63;;;;;;;14.20;61.78;101669.94;4923083;28;20051;-71
2023/10/09 11:23:29;;;;;;;11.20;1.30;;;;;;;13.94;62.44;101664.88;4912152;28;20572;-71
2023/10/09 11:26:20;;;;;;;11.05;1.63;;;;;;;13.58;63.58;101672.44;4915025;28;20182;-70
2023/10/09 11:28:48;;;;;;;12.45;2.35;;;;;;;13.91;62.39;101664.97;4913578;28;20027;-70
2023/10/09 11:31:17;;;;;;;9.00;1.90;;;;;;;13.94;62.60;101669.25;4909286;28;20103;-71
2023/10/09 11:33:45;;;;;;;12.80;1.67;;;;;;;13.50;63.63;101664.88;4915640;28;20043;-70
2023/10/09 11:36:11;;;;;;;11.45;1.42;;;;;;;13.94;62.35;101667.50;4910380;28;20040;-70
2023/10/09 11:38:38;;;;;;;8.15;1.20;;;;;;;14.15;62.01;101680.66;4916509;28;20042;-69
2023/10/09 11:41:23;;;;;;;12.23;1.52;;;;;;;14.02;62.04;101674.19;4923501;28;20509;-70
2023/10/09 11:43:54;;;;;;;8.10;2.17;;;;;;;14.21;61.56;101680.41;4917266;28;20048;-70
2023/10/09 11:49:40;;;;;;;5.45;1.40;;;;;;;14.25;61.00;101676.69;4895435;29;20043;-70
2023/10/09 11:54:39;;;;;;;4.53;1.15;;;;;;;14.23;60.81;101673.28;4911313;28;20054;-70
2023/10/09 11:57:04;;;;;;;6.93;1.08;;;;;;;14.17;61.03;101676.19;4898649;28;20247;-70
2023/10/09 11:59:37;;;;;;;4.38;0.75;;;;;;;13.96;61.19;101677.06;4922580;28;20091;-71
2023/10/09 12:02:12;;;;;;;6.72;0.85;;;;;;;13.86;61.63;101672.19;4917451;28;20047;-70
2023/10/09 12:04:44;;;;;;;4.40;0.73;;;;;;;14.02;61.71;101677.66;4922367;28;20173;-71
2023/10/09 12:07:10;;;;;;;;;;;;;;;13.97;61.66;101691.94;4912248;28;20413;-70
2023/10/09 12:09:37;;;;;;;4.43;0.73;;;;;;;14.20;61.20;101686.56;4930065;28;19919;-70
2023/10/09 12:12:05;;;;;;;11.13;1.23;;;;;;;14.09;61.09;101678.25;4912305;28;20089;-69
2023/10/09 12:14:35;;;;;;;6.10;0.93;;;;;;;14.03;61.18;101679.41;4919584;28;20093;-70
2023/10/09 12:17:05;;;;;;;8.45;1.33;;;;;;;13.86;61.44;101682.72;4913598;28;20043;-70
2023/10/09 12:19:38;;;;;;;10.90;1.23;;;;;;;13.32;62.06;101689.22;4916298;28;20109;-70
2023/10/09 12:22:15;;;;;;;5.53;0.77;;;;;;;13.42;61.65;101687.94;4912045;28;20119;-70
2023/10/09 12:24:43;;;;;;;6.68;0.50;;;;;;;13.71;61.79;101684.19;4929578;28;20486;-70
2023/10/09 12:27:13;;;;;;;6.50;0.63;;;;;;;13.62;61.92;101683.72;4909055;28;20050;-70
2023/10/09 12:29:44;;;;;;;4.13;0.30;;;;;;;13.64;61.76;101681.88;4915242;28;20453;-70
2023/10/09 12:32:11;;;;;;;3.53;0.40;;;;;;;13.57;62.64;101689.16;4910892;28;20042;-70
2023/10/09 12:34:38;;;;;;;8.68;0.93;;;;;;;13.72;62.23;101687.69;4918470;28;20047;-70
2023/10/09 12:37:06;;;;;;;7.72;0.60;;;;;;;14.05;61.60;101679.31;4918614;28;20558;-70
2023/10/09 12:39:34;;;;;;;10.85;0.68;;;;;;;14.19;60.77;101684.84;4928202;28;20232;-69
2023/10/09 12:42:06;;;;;;;4.35;0.40;;;;;;;14.26;60.67;101688.09;4932529;28;20050;-69
2023/10/09 12:44:42;;;;;;;2.45;0.30;;;;;;;14.31;60.37;101681.69;4919904;28;20565;-69
2023/10/09 12:47:11;;;;;;;5.13;1.25;;;;;;;14.14;60.73;101687.69;4915221;28;20497;-69
2023/10/09 12:49:40;;;;;;;6.47;0.70;;;;;;;13.45;61.67;101700.97;4916403;28;20117;-69
2023/10/09 12:52:16;;;;;;;2.22;0.65;;;;;;;13.50;62.47;101699.00;4915939;28;20494;-69
2023/10/09 12:54:42;;;;;;;4.97;1.00;;;;;;;13.44;62.04;101695.75;4919748;28;20053;-69
2023/10/09 12:57:13;;;;;;;6.82;1.05;;;;;;;13.43;62.39;101692.28;4912244;28;20032;-70
2023/10/09 12:59:45;;;;;;;6.20;0.80;;;;;;;13.50;62.34;101696.38;4921268;28;20503;-69
2023/10/09 13:02:28;;;;;;;8.43;0.70;;;;;;;13.72;61.85;101691.16;4914981;28;20043;-68
2023/10/09 13:04:55;;;;;;;10.18;1.10;;;;;;;13.83;61.57;101695.09;4918348;28;20130;-70
2023/10/09 13:07:21;;;;;;;4.38;0.30;;;;;;;13.76;62.05;101688.41;4910268;28;20039;-69
2023/10/09 13:10:08;;;;;;;4.97;0.50;;;;;;;13.75;61.63;101689.31;4931917;28;20039;-69
2023/10/09 13:12:38;;;;;;;8.40;1.35;;;;;;;13.75;61.88;101694.59;4925332;28;20032;-69
2023/10/09 13:15:09;;;;;;;6.55;0.73;;;;;;;13.72;61.45;101691.16;4925599;28;20062;-70
2023/10/09 13:17:38;;;;;;;6.33;0.50;;;;;;;13.28;62.37;101700.75;4917946;28;20231;-69
2023/10/09 13:20:13;;;;;;;6.20;0.30;;;;;;;13.20;62.03;101694.94;4916833;28;20038;-69
2023/10/09 13:22:40;;;;;;;3.92;0.50;;;;;;;13.78;61.13;101705.81;4934280;28;20039;-69
2023/10/09 13:25:15;;;;;;;6.18;0.50;;;;;;;13.91;60.71;101706.16;4914048;28;20078;-69
2023/10/09 13:27:50;;;;;;;2.13;0.20;;;;;;;13.36;62.12;101698.69;4934946;28;20127;-70
2023/10/09 13:30:23;;;;;;;2.92;0.30;;;;;;;13.93;61.23;101697.31;4920480;28;20041;-69
2023/10/09 13:32:49;;;;;;;2.70;0.30;;;;;;;13.33;62.74;101704.06;4919849;28;20299;-69
2023/10/09 13:35:17;;;;;;;5.40;0.75;;;;;;;13.72;61.52;101698.19;4927087;28;20712;-69
2023/10/09 13:37:44;;;;;;;0.77;0.20;;;;;;;13.65;62.00;101705.47;4935194;28;20672;-68
2023/10/09 13:40:18;;;;;;;5.88;0.32;;;;;;;13.54;62.26;101707.63;4917349;28;20590;-73
2023/10/09 13:42:47;;;;;;;4.65;0.40;;;;;;;13.76;61.99;101707.63;4920617;28;20039;-69
2023/10/09 13:45:15;;;;;;;2.33;0.30;;;;;;;14.06;61.61;101707.31;4915249;28;20620;-69
2023/10/09 13:47:45;;;;;;;2.55;0.20;;;;;;;13.53;62.18;101703.28;4935356;28;20391;-69
2023/10/09 13:50:10;;;;;;;2.00;0.20;;;;;;;13.83;61.54;101703.88;4916109;28;20043;-71
2023/10/09 13:52:39;;;;;;;2.40;0.70;;;;;;;14.12;61.09;101710.56;4923440;28;20046;-69
2023/10/09 13:55:15;;;;;;;4.25;0.22;;;;;;;13.93;61.16;101705.19;4918847;28;20098;-69
2023/10/09 13:57:45;;;;;;;7.43;0.88;;;;;;;13.74;61.11;101709.47;4935746;28;20035;-70
2023/10/09 14:00:17;;;;;;;5.55;0.80;;;;;;;13.81;60.77;101705.69;4918936;28;20577;-71
2023/10/09 14:02:43;;;;;;;4.65;0.20;;;;;;;13.04;63.07;101698.13;4920406;28;20063;-71
2023/10/09 14:05:08;;;;;;;1.08;0.20;;;;;;;13.49;61.93;101704.31;4920274;28;20086;-71
2023/10/09 14:07:34;;;;;;;1.05;0.35;;;;;;;13.70;62.29;101702.66;4912087;28;20452;-71
2023/10/09 14:12:56;;;;;;;7.40;0.85;;;;;;;14.06;61.01;101700.28;4929493;28;20051;-69
2023/10/09 14:15:26;;;;;;;5.15;1.02;;;;;;;14.34;60.33;101704.38;4915431;28;20592;-69
2023/10/09 14:17:55;;;;;;;7.50;0.90;;;;;;;14.25;60.49;101702.97;4905510;28;20053;-70
2023/10/09 14:20:56;;;;;;;9.60;0.60;;;;;;;14.25;59.82;101702.97;4914441;28;20138;-69
2023/10/09 14:23:20;;;;;;;4.80;0.60;;;;;;;14.24;59.89;101698.66;4914940;28;20040;-69
2023/10/09 14:25:49;;;;;;;9.32;0.40;;;;;;;14.36;59.74;101698.13;4920315;28;20035;-69
2023/10/09 14:28:18;;;;;;;8.77;1.95;;;;;;;14.37;59.21;101709.50;4915083;28;20656;-68
2023/10/09 14:30:47;;;;;;;4.45;0.57;;;;;;;14.23;59.88;101706.59;4925540;28;20813;-68
2023/10/09 14:33:12;;;;;;;5.93;1.00;;;;;;;14.24;59.58;101709.16;4919337;28;20055;-69
2023/10/09 14:35:42;;;;;;;5.15;1.08;;;;;;;14.48;59.33;101706.47;4915029;28;20135;-69
2023/10/09 14:38:12;;;;;;;7.90;0.70;;;;;;;14.24;59.28;101703.06;4917174;28;20483;-69